Time;durP1;ratioP1;P1;durP2;ratioP2;P2;SDS_P1;SDS_P2;PMS_P1;PMS_P2;Temp;Humidity;BMP_temperature;BMP_pressure;BME280_temperature;BME280_humidity;BME280_pressure;Samples;Min_cycle;Max_cycle;Signal;HPM_P1;HPM_P2
2024/04/06 00:00:45;;;;;;;4.75;1.15;;;;;;;11.92;51.68;94438.91;5026157;28;20100;-84
2024/04/06 00:03:10;;;;;;;3.75;0.80;;;;;;;11.95;51.65;94432.97;5026012;28;20036;-84
2024/04/06 00:05:36;;;;;;;1.75;0.63;;;;;;;11.96;52.03;94434.53;5025971;28;20038;-84
2024/04/06 00:08:01;;;;;;;2.40;0.90;;;;;;;11.91;52.27;94427.44;5026308;28;20034;-84
2024/04/06 00:10:26;;;;;;;3.47;0.95;;;;;;;11.88;52.32;94422.66;5025100;28;20085;-84
2024/04/06 00:12:52;;;;;;;4.70;0.80;;;;;;;11.85;52.21;94421.41;5026086;28;20041;-84
2024/04/06 00:15:17;;;;;;;1.75;0.80;;;;;;;11.85;52.22;94424.06;5025731;28;20315;-84
2024/04/06 00:17:42;;;;;;;2.40;0.80;;;;;;;11.85;52.57;94416.06;5025857;28;20030;-85
2024/04/06 00:20:08;;;;;;;5.57;0.80;;;;;;;11.87;52.24;94412.31;5025899;28;20025;-84
2024/04/06 00:22:33;;;;;;;4.65;0.70;;;;;;;11.85;52.18;94417.94;5025748;28;20053;-84
2024/04/06 00:24:59;;;;;;;3.03;0.80;;;;;;;11.89;52.32;94418.16;5025416;28;20096;-85
2024/04/06 00:27:25;;;;;;;3.10;0.98;;;;;;;11.88;52.56;94417.31;5025835;28;20053;-83
2024/04/06 00:29:51;;;;;;;4.53;0.98;;;;;;;11.85;52.24;94418.72;5025476;28;20036;-84
2024/04/06 00:32:16;;;;;;;1.42;0.80;;;;;;;11.88;52.48;94413.88;5025489;28;20034;-83
2024/04/06 00:34:42;;;;;;;1.60;0.80;;;;;;;11.87;53.07;94421.09;5025425;28;20026;-83
2024/04/06 00:37:08;;;;;;;2.05;0.85;;;;;;;11.83;53.03;94414.81;5023811;28;20097;-83
2024/04/06 00:39:33;;;;;;;1.63;0.70;;;;;;;11.79;52.89;94417.28;5025401;28;20249;-83
2024/04/06 00:41:59;;;;;;;5.72;1.92;;;;;;;11.75;52.51;94416.31;5025415;28;20021;-84
2024/04/06 00:44:24;;;;;;;1.27;0.60;;;;;;;11.76;52.20;94425.13;5025391;28;20308;-84
2024/04/06 00:46:52;;;;;;;3.55;0.80;;;;;;;11.76;52.08;94425.91;5024963;28;20063;-84
2024/04/06 00:49:18;;;;;;;2.33;1.13;;;;;;;11.77;52.04;94426.72;5025010;28;20022;-83
2024/04/06 00:51:43;;;;;;;1.70;1.00;;;;;;;11.80;51.92;94420.75;5024991;28;20037;-84
2024/04/06 00:54:10;;;;;;;4.22;1.30;;;;;;;11.77;52.19;94421.38;5025104;28;20049;-84
2024/04/06 00:56:36;;;;;;;3.83;1.20;;;;;;;11.79;52.32;94414.63;5024984;28;20097;-82
2024/04/06 00:59:02;;;;;;;13.23;1.40;;;;;;;11.81;52.26;94414.31;5024581;28;20316;-84
2024/04/06 01:01:27;;;;;;;10.02;1.27;;;;;;;11.76;52.63;94415.22;5024349;28;20053;-83
2024/04/06 01:03:53;;;;;;;2.63;1.02;;;;;;;11.77;52.99;94414.13;5024904;28;20201;-83
2024/04/06 01:06:18;;;;;;;4.65;1.70;;;;;;;11.75;53.40;94416.31;5023426;28;20025;-84
2024/04/06 01:08:44;;;;;;;2.70;1.02;;;;;;;11.72;53.42;94411.59;5024435;28;20026;-84
2024/04/06 01:11:10;;;;;;;1.85;1.25;;;;;;;11.65;53.74;94408.56;5023694;28;20092;-83
2024/04/06 01:13:35;;;;;;;4.40;1.55;;;;;;;11.60;54.03;94400.69;5022950;28;20026;-84
2024/04/06 01:16:00;;;;;;;3.40;1.13;;;;;;;11.59;54.10;94405.25;5023293;28;20052;-84
2024/04/06 01:18:26;;;;;;;2.50;1.27;;;;;;;11.53;54.27;94409.13;5024472;28;20084;-84
2024/04/06 01:20:53;;;;;;;4.85;1.27;;;;;;;11.51;54.15;94413.97;5024551;28;20021;-83
2024/04/06 01:23:19;;;;;;;3.97;1.30;;;;;;;11.52;54.07;94418.25;5024227;28;20029;-83
2024/04/06 01:25:45;;;;;;;3.55;0.98;;;;;;;11.51;53.92;94413.22;5024060;28;20247;-83
2024/04/06 01:28:10;;;;;;;2.30;0.88;;;;;;;11.49;54.03;94420.72;5024064;28;20320;-84
2024/04/06 01:30:38;;;;;;;2.03;1.02;;;;;;;11.48;53.61;94419.13;5023893;28;20227;-83
2024/04/06 01:33:04;;;;;;;4.30;1.42;;;;;;;11.42;53.56;94416.59;5024058;28;20045;-82
2024/04/06 01:35:29;;;;;;;2.90;1.17;;;;;;;11.45;53.67;94407.19;5024003;28;20061;-84
2024/04/06 01:37:55;;;;;;;5.93;1.33;;;;;;;11.46;53.94;94416.78;5023741;28;20030;-83
2024/04/06 01:40:20;;;;;;;12.88;1.73;;;;;;;11.47;54.08;94412.25;5024047;28;20080;-84
2024/04/06 01:42:45;;;;;;;1.73;0.93;;;;;;;11.48;54.38;94411.13;5024037;28;20113;-83
2024/04/06 01:45:11;;;;;;;2.85;0.90;;;;;;;11.49;54.92;94407.38;5023311;28;20033;-83
2024/04/06 01:47:36;;;;;;;2.60;1.00;;;;;;;11.45;54.95;94401.84;5023916;28;20070;-83
2024/04/06 01:50:05;;;;;;;1.85;0.80;;;;;;;11.43;55.36;94401.38;5023516;28;20180;-83
2024/04/06 01:52:30;;;;;;;6.82;1.23;;;;;;;11.42;55.36;94397.16;5023481;28;20105;-83
2024/04/06 01:54:58;;;;;;;3.85;1.35;;;;;;;11.39;55.43;94392.41;5023617;28;20017;-83
2024/04/06 01:57:24;;;;;;;12.23;1.30;;;;;;;11.36;55.67;94406.38;5023653;28;20083;-83
2024/04/06 01:59:49;;;;;;;4.32;1.10;;;;;;;11.33;55.69;94412.31;5022082;28;20335;-83
2024/04/06 02:02:14;;;;;;;5.95;1.52;;;;;;;11.32;55.86;94400.84;5022077;28;20089;-84
2024/04/06 02:04:40;;;;;;;4.53;1.20;;;;;;;11.31;56.11;94403.81;5021550;28;20091;-84
2024/04/06 02:07:06;;;;;;;3.45;2.08;;;;;;;11.27;55.99;94406.28;5021511;28;20053;-83
2024/04/06 02:09:32;;;;;;;3.53;1.17;;;;;;;11.22;55.92;94393.88;5022286;28;20086;-83
2024/04/06 02:11:57;;;;;;;3.53;0.95;;;;;;;11.21;55.83;94396.84;5023365;28;20026;-84
2024/04/06 02:14:22;;;;;;;2.17;1.02;;;;;;;11.17;56.14;94391.34;5022278;28;20021;-84
2024/04/06 02:16:48;;;;;;;3.92;1.48;;;;;;;11.16;56.32;94389.75;5022784;28;20022;-83
2024/04/06 02:19:13;;;;;;;3.75;1.02;;;;;;;11.15;56.40;94395.38;5023220;28;20017;-84
2024/04/06 02:21:39;;;;;;;2.50;0.98;;;;;;;11.09;56.70;94394.69;5023240;28;20381;-85
2024/04/06 02:24:05;;;;;;;3.08;1.00;;;;;;;11.06;56.95;94387.31;5022546;28;20026;-84
2024/04/06 02:26:31;;;;;;;14.23;1.35;;;;;;;11.00;56.92;94391.19;5021968;28;20117;-84
2024/04/06 02:28:57;;;;;;;5.47;0.88;;;;;;;10.98;56.59;94388.03;5023061;28;20271;-84
2024/04/06 02:31:22;;;;;;;2.10;1.08;;;;;;;10.95;56.34;94393.97;5023223;28;20025;-84
2024/04/06 02:33:48;;;;;;;5.70;0.90;;;;;;;10.94;56.18;94403.06;5023431;28;20197;-83
2024/04/06 02:36:14;;;;;;;4.28;1.35;;;;;;;10.94;56.95;94406.53;5022964;28;20088;-85
2024/04/06 02:38:39;;;;;;;4.60;1.38;;;;;;;10.91;57.52;94407.13;5022441;28;20093;-84
2024/04/06 02:41:04;;;;;;;5.78;1.92;;;;;;;10.87;57.64;94403.50;5021759;28;20093;-84
2024/04/06 02:43:30;;;;;;;3.95;1.90;;;;;;;10.84;57.83;94406.75;5021600;28;20022;-84
2024/04/06 02:45:55;;;;;;;4.07;1.65;;;;;;;10.79;57.82;94414.88;5022752;28;20050;-84
2024/04/06 02:48:20;;;;;;;4.30;2.05;;;;;;;10.76;57.61;94410.13;5022611;28;20324;-84
2024/04/06 02:50:46;;;;;;;3.97;1.67;;;;;;;10.74;57.46;94414.97;5023141;28;20022;-84
2024/04/06 02:53:13;;;;;;;9.73;1.73;;;;;;;10.71;57.46;94411.03;5022848;28;20022;-84
2024/04/06 02:55:38;;;;;;;4.25;1.63;;;;;;;10.69;57.84;94409.75;5022712;28;20041;-84
2024/04/06 02:58:04;;;;;;;6.05;2.10;;;;;;;10.71;57.99;94408.38;5022651;28;20034;-84
2024/04/06 03:00:29;;;;;;;4.32;1.80;;;;;;;10.66;58.27;94402.34;5021688;28;20025;-84
2024/04/06 03:02:55;;;;;;;8.82;2.47;;;;;;;10.63;58.24;94399.19;5021932;28;20053;-83
2024/04/06 03:05:20;;;;;;;4.85;1.70;;;;;;;10.62;58.12;94396.81;5021136;28;20052;-83
2024/04/06 03:07:46;;;;;;;8.30;2.00;;;;;;;10.61;58.27;94401.38;5021760;28;20034;-84
2024/04/06 03:10:11;;;;;;;16.08;4.80;;;;;;;10.59;58.46;94395.56;5021686;28;20189;-86
2024/04/06 03:12:37;;;;;;;6.60;2.00;;;;;;;10.53;58.14;94391.41;5022177;28;20026;-85
2024/04/06 03:15:03;;;;;;;7.20;2.20;;;;;;;10.54;58.28;94392.19;5022686;28;20017;-85
2024/04/06 03:17:28;;;;;;;5.72;2.50;;;;;;;10.49;58.56;94381.66;5025786;28;20025;-86
2024/04/06 03:19:54;;;;;;;9.38;1.88;;;;;;;10.44;59.04;94395.88;5025948;28;20320;-86
2024/04/06 03:22:19;;;;;;;14.68;2.40;;;;;;;10.38;59.27;94395.19;5026889;28;20068;-85
2024/04/06 03:24:45;;;;;;;7.50;2.45;;;;;;;10.33;59.54;94386.50;5026684;28;20029;-85
2024/04/06 03:27:10;;;;;;;8.05;2.50;;;;;;;10.27;59.79;94393.00;5025703;28;20316;-86
2024/04/06 03:29:35;;;;;;;7.78;3.38;;;;;;;10.20;59.98;94396.06;5024914;28;20120;-86
2024/04/06 03:32:01;;;;;;;12.90;2.58;;;;;;;10.14;60.28;94394.59;5026972;28;20129;-86
2024/04/06 03:34:26;;;;;;;10.10;3.05;;;;;;;10.11;60.42;94405.84;5026717;28;20193;-85
2024/04/06 03:36:52;;;;;;;11.25;3.22;;;;;;;10.06;60.62;94395.28;5026616;28;20060;-85
2024/04/06 03:39:18;;;;;;;6.72;3.22;;;;;;;10.03;60.74;94397.47;5025429;28;20223;-85
2024/04/06 03:41:44;;;;;;;6.13;2.45;;;;;;;10.01;60.78;94404.16;5026441;28;20030;-85
2024/04/06 03:44:09;;;;;;;7.10;2.13;;;;;;;9.99;60.72;94404.47;5026560;28;20030;-85
2024/04/06 03:46:34;;;;;;;6.22;2.15;;;;;;;9.96;61.42;94406.91;5025354;28;20034;-85
2024/04/06 03:49:00;;;;;;;4.13;1.88;;;;;;;9.94;61.04;94406.44;5025587;28;20061;-84
2024/04/06 03:51:25;;;;;;;6.30;1.77;;;;;;;9.90;61.14;94394.78;5026977;28;20006;-85
2024/04/06 03:53:51;;;;;;;5.40;2.05;;;;;;;9.87;61.11;94400.69;5026817;28;20096;-84
2024/04/06 03:56:16;;;;;;;4.88;2.13;;;;;;;9.84;61.15;94400.19;5026623;28;20056;-84
2024/04/06 03:58:42;;;;;;;4.05;1.80;;;;;;;9.81;61.26;94394.66;5026015;28;20029;-84
2024/04/06 04:01:07;;;;;;;6.43;2.03;;;;;;;9.82;61.37;94404.25;5026183;28;20042;-83
2024/04/06 04:03:33;;;;;;;4.75;1.63;;;;;;;9.81;61.56;94395.47;5024962;28;20025;-83
2024/04/06 04:05:58;;;;;;;16.45;2.10;;;;;;;9.84;61.58;94394.09;5026072;28;20026;-84
2024/04/06 04:08:23;;;;;;;8.18;2.22;;;;;;;9.85;61.73;94398.34;5025149;28;20049;-84
2024/04/06 04:10:49;;;;;;;4.50;1.60;;;;;;;9.84;61.80;94400.19;5026012;28;20034;-83
2024/04/06 04:13:16;;;;;;;6.35;2.53;;;;;;;9.89;61.79;94406.50;5024664;28;20038;-83
2024/04/06 04:15:42;;;;;;;3.80;1.20;;;;;;;9.88;61.74;94412.94;5026124;28;20029;-83
2024/04/06 04:18:08;;;;;;;3.40;1.70;;;;;;;9.89;61.67;94403.84;5025972;28;20045;-83
2024/04/06 04:20:34;;;;;;;7.88;1.80;;;;;;;9.87;61.96;94414.00;5025176;28;20228;-82
2024/04/06 04:23:00;;;;;;;7.57;1.80;;;;;;;9.90;61.92;94418.75;5024255;28;20029;-84
2024/04/06 04:25:29;;;;;;;9.20;2.08;;;;;;;9.94;62.01;94425.06;5025531;28;20026;-84
2024/04/06 04:27:56;;;;;;;15.00;2.47;;;;;;;9.95;61.57;94418.63;5024697;28;20071;-84
2024/04/06 04:30:22;;;;;;;11.02;2.60;;;;;;;9.94;61.67;94414.41;5024217;28;20018;-84
2024/04/06 04:32:47;;;;;;;12.90;1.80;;;;;;;9.98;61.83;94428.72;5024410;28;20033;-84
2024/04/06 04:35:13;;;;;;;8.48;2.53;;;;;;;10.02;61.82;94425.16;5024320;28;20037;-85
2024/04/06 04:37:38;;;;;;;5.90;2.03;;;;;;;10.02;61.85;94425.16;5025569;28;20037;-84
2024/04/06 04:40:04;;;;;;;10.48;1.98;;;;;;;10.08;61.92;94425.88;5025328;28;20144;-83
2024/04/06 04:42:29;;;;;;;6.68;1.75;;;;;;;10.12;61.82;94420.75;5025415;28;20084;-83
2024/04/06 04:45:04;;;;;;;17.10;1.95;;;;;;;10.18;61.71;94439.00;5024591;28;20022;-83
2024/04/06 04:47:29;;;;;;;16.35;3.55;;;;;;;10.22;61.83;94439.19;5056699;28;20033;-84
2024/04/06 04:49:55;;;;;;;7.35;2.08;;;;;;;10.24;61.46;94437.03;5025596;28;20049;-84
2024/04/06 04:52:20;;;;;;;7.80;2.50;;;;;;;10.28;61.85;94435.34;5025148;28;20347;-84
2024/04/06 04:54:45;;;;;;;14.43;2.95;;;;;;;10.31;61.33;94436.66;5024928;28;20064;-84
2024/04/06 04:57:11;;;;;;;8.30;2.63;;;;;;;10.39;60.99;94443.94;5023329;28;20037;-84
2024/04/06 04:59:36;;;;;;;9.98;2.90;;;;;;;10.42;60.28;94446.00;5024504;28;20045;-84
2024/04/06 05:02:02;;;;;;;10.02;3.38;;;;;;;10.47;60.70;94447.81;5025009;28;20048;-84
2024/04/06 05:04:27;;;;;;;11.82;3.42;;;;;;;10.49;60.39;94438.41;5023848;28;20049;-84
2024/04/06 05:06:53;;;;;;;5.88;2.35;;;;;;;10.55;60.31;94447.09;5023437;28;20048;-84
2024/04/06 05:09:18;;;;;;;8.63;3.00;;;;;;;10.60;60.05;94437.13;5023967;28;20018;-85
2024/04/06 05:11:46;;;;;;;7.43;3.00;;;;;;;10.70;60.18;94445.97;5024762;28;20045;-85
2024/04/06 05:14:11;;;;;;;12.70;2.85;;;;;;;10.78;60.33;94447.94;5022451;28;20029;-82
2024/04/06 05:16:36;;;;;;;14.82;3.42;;;;;;;10.86;60.18;94455.22;5024433;28;20324;-84
2024/04/06 05:19:05;;;;;;;18.52;3.40;;;;;;;10.93;60.55;94452.97;5024984;28;20025;-84
2024/04/06 05:21:31;;;;;;;10.95;3.47;;;;;;;10.99;60.59;94459.75;5024474;28;20018;-85
2024/04/06 05:23:58;;;;;;;15.25;3.53;;;;;;;11.07;60.58;94460.91;5024653;28;20110;-85
2024/04/06 05:26:23;;;;;;;16.70;3.70;;;;;;;11.08;60.89;94457.16;5024556;28;20030;-85
2024/04/06 05:28:49;;;;;;;11.23;4.45;;;;;;;11.15;60.94;94464.75;5024457;28;20201;-85
2024/04/06 05:31:14;;;;;;;22.08;4.63;;;;;;;11.20;60.86;94445.97;5023476;28;20034;-85
2024/04/06 05:33:39;;;;;;;11.68;3.67;;;;;;;11.30;60.59;94452.94;5024319;28;20029;-85
2024/04/06 05:36:06;;;;;;;24.80;4.28;;;;;;;11.42;60.31;94450.53;5024170;28;20042;-85
2024/04/06 05:38:32;;;;;;;13.07;4.13;;;;;;;11.50;60.08;94446.31;5023568;28;20034;-86
2024/04/06 05:40:57;;;;;;;6.90;3.53;;;;;;;11.57;59.66;94441.34;5022822;28;20048;-85
2024/04/06 05:43:23;;;;;;;11.98;3.60;;;;;;;11.69;59.37;94441.59;5024454;28;20036;-87
2024/04/06 05:46:02;;;;;;;12.50;3.78;;;;;;;11.81;58.86;94436.47;5023897;28;20409;-86
2024/04/06 05:48:28;;;;;;;17.65;4.22;;;;;;;11.91;58.67;94448.03;5024564;28;20025;-86
2024/04/06 05:50:54;;;;;;;17.13;3.90;;;;;;;12.01;58.05;94443.19;5024273;28;20352;-86
2024/04/06 05:53:20;;;;;;;21.52;5.43;;;;;;;12.08;57.42;94442.75;5024028;28;20223;-86
2024/04/06 05:55:45;;;;;;;15.35;3.63;;;;;;;12.13;57.08;94450.66;5022903;28;20025;-86
2024/04/06 05:58:11;;;;;;;16.88;4.30;;;;;;;12.19;56.85;94446.75;5024220;28;20034;-87
2024/04/06 06:00:37;;;;;;;10.75;3.50;;;;;;;12.26;56.71;94442.84;5023018;28;20025;-85
2024/04/06 06:03:02;;;;;;;10.00;4.35;;;;;;;12.31;56.05;94446.13;5022872;28;20197;-85
2024/04/06 06:05:28;;;;;;;11.43;4.00;;;;;;;12.37;56.55;94441.44;5022819;28;20320;-83
2024/04/06 06:07:53;;;;;;;10.90;3.53;;;;;;;12.44;56.20;94439.91;5022178;28;20056;-83
2024/04/06 06:10:18;;;;;;;10.45;3.60;;;;;;;12.48;55.10;94440.06;5022100;28;20049;-83
2024/04/06 06:12:44;;;;;;;14.32;3.88;;;;;;;12.56;55.03;94441.22;5022360;28;20033;-84
2024/04/06 06:15:09;;;;;;;13.23;4.47;;;;;;;12.62;54.22;94440.75;5021291;28;20018;-82
2024/04/06 06:17:35;;;;;;;14.43;4.15;;;;;;;12.70;53.76;94436.53;5023386;28;20021;-83
2024/04/06 06:20:01;;;;;;;11.02;3.78;;;;;;;12.75;54.35;94449.72;5022921;28;20304;-84
2024/04/06 06:22:29;;;;;;;7.70;4.30;;;;;;;12.83;54.82;94442.81;5023033;28;20088;-83
2024/04/06 06:24:56;;;;;;;13.57;4.70;;;;;;;12.92;54.97;94440.94;5023705;28;20068;-83
2024/04/06 06:27:21;;;;;;;12.50;3.47;;;;;;;13.03;54.60;94439.53;5022533;28;20053;-83
2024/04/06 06:29:47;;;;;;;16.80;4.90;;;;;;;13.14;54.26;94448.03;5022370;28;20038;-84
2024/04/06 06:32:12;;;;;;;9.00;3.38;;;;;;;13.25;53.46;94440.50;5023480;28;20068;-84
2024/04/06 06:34:37;;;;;;;7.45;3.22;;;;;;;13.35;52.93;94456.28;5023271;28;20044;-83
2024/04/06 06:37:03;;;;;;;14.95;3.25;;;;;;;13.42;52.25;94451.22;5023254;28;20232;-84
2024/04/06 06:39:29;;;;;;;15.90;3.15;;;;;;;13.54;51.76;94452.47;5023513;28;20088;-83
2024/04/06 06:41:55;;;;;;;16.17;3.50;;;;;;;13.64;50.91;94458.28;5023796;28;20030;-83
2024/04/06 06:44:20;;;;;;;11.50;3.55;;;;;;;13.61;50.84;94458.13;5022206;28;20128;-83
2024/04/06 06:46:46;;;;;;;10.48;4.35;;;;;;;13.67;50.80;94467.56;5023355;28;20018;-83
2024/04/06 06:49:12;;;;;;;14.88;4.97;;;;;;;13.76;51.41;94454.97;5023450;28;20045;-83
2024/04/06 06:51:37;;;;;;;19.50;3.65;;;;;;;13.84;51.18;94458.75;5026297;28;20053;-83
2024/04/06 06:54:03;;;;;;;11.45;3.75;;;;;;;13.85;50.57;94466.44;5027451;28;20021;-83
2024/04/06 06:56:29;;;;;;;15.35;3.53;;;;;;;13.97;50.83;94475.72;5027396;28;20040;-82
2024/04/06 06:58:54;;;;;;;20.55;3.42;;;;;;;14.04;50.64;94471.47;5027058;28;20033;-82
2024/04/06 07:01:20;;;;;;;15.88;4.00;;;;;;;14.13;50.15;94479.47;5027236;28;20078;-82
2024/04/06 07:03:45;;;;;;;12.35;3.33;;;;;;;14.25;48.66;94471.56;5025792;28;20028;-82
2024/04/06 07:06:14;;;;;;;11.38;3.70;;;;;;;14.29;48.73;94481.63;5026498;28;20056;-83
2024/04/06 07:08:40;;;;;;;8.10;3.95;;;;;;;14.33;48.70;94471.81;5026750;28;20029;-84
2024/04/06 07:11:06;;;;;;;11.98;3.90;;;;;;;14.40;48.86;94472.13;5026882;28;20048;-82
2024/04/06 07:13:32;;;;;;;8.80;3.83;;;;;;;14.51;48.19;94478.72;5026503;28;20051;-82
2024/04/06 07:16:08;;;;;;;10.25;3.42;;;;;;;14.57;48.35;94474.78;5025430;28;20026;-81
2024/04/06 07:18:34;;;;;;;10.75;3.60;;;;;;;14.66;47.64;94482.00;5026615;28;20029;-82
2024/04/06 07:21:00;;;;;;;6.90;3.25;;;;;;;14.78;47.28;94474.03;5026579;28;20022;-81
2024/04/06 07:23:26;;;;;;;13.65;3.50;;;;;;;14.82;47.42;94485.69;5026757;28;20072;-81
2024/04/06 07:25:52;;;;;;;20.95;3.72;;;;;;;14.93;47.71;94478.81;5026390;28;20095;-82
2024/04/06 07:28:18;;;;;;;11.73;3.38;;;;;;;15.04;47.46;94485.41;5026681;28;20021;-83
2024/04/06 07:30:44;;;;;;;11.77;3.60;;;;;;;15.11;47.04;94481.41;5026589;28;20026;-84
2024/04/06 07:33:09;;;;;;;12.32;3.17;;;;;;;15.19;46.40;94480.56;5026393;28;20071;-84
2024/04/06 07:35:35;;;;;;;13.07;3.30;;;;;;;15.27;46.50;94482.41;5026341;28;20034;-85
2024/04/06 07:38:01;;;;;;;13.13;3.90;;;;;;;15.38;46.40;94490.84;5026564;28;20030;-87
2024/04/06 07:40:27;;;;;;;13.48;4.30;;;;;;;15.46;45.83;94479.25;5026512;28;20030;-87
2024/04/06 07:42:52;;;;;;;13.43;3.97;;;;;;;15.56;46.00;94478.06;5026129;28;20110;-86
2024/04/06 07:45:18;;;;;;;21.20;5.63;;;;;;;15.62;45.29;94472.16;5026026;28;20225;-87
2024/04/06 07:47:43;;;;;;;13.05;3.85;;;;;;;15.72;45.19;94467.50;5025916;28;20053;-87
2024/04/06 07:50:08;;;;;;;9.45;4.57;;;;;;;15.84;45.51;94462.22;5026118;28;20045;-84
2024/04/06 07:52:34;;;;;;;8.43;3.80;;;;;;;15.94;45.44;94466.38;5026553;28;20018;-85
2024/04/06 07:55:00;;;;;;;12.23;4.07;;;;;;;16.02;44.85;94465.50;5025026;28;20049;-87
2024/04/06 07:57:27;;;;;;;13.45;4.00;;;;;;;16.07;44.34;94459.91;5025217;28;20041;-87
2024/04/06 07:59:55;;;;;;;20.38;4.65;;;;;;;16.12;44.21;94465.09;5026184;28;20052;-88
2024/04/06 08:02:21;;;;;;;10.82;3.83;;;;;;;16.16;44.31;94466.00;5024956;28;20037;-88
2024/04/06 08:04:56;;;;;;;22.55;4.60;;;;;;;16.23;44.39;94468.91;5024989;28;20075;-84
2024/04/06 08:07:25;;;;;;;19.13;4.10;;;;;;;16.34;44.54;94463.88;5024696;28;20092;-84
2024/04/06 08:10:00;;;;;;;13.32;4.28;;;;;;;16.48;44.47;94466.25;5025796;28;20324;-85
2024/04/06 08:12:27;;;;;;;7.97;3.70;;;;;;;16.63;44.74;94470.97;5025864;28;20243;-84
2024/04/06 08:14:52;;;;;;;15.52;3.67;;;;;;;16.78;43.89;94474.88;5026196;28;20040;-84
2024/04/06 08:17:18;;;;;;;22.40;4.60;;;;;;;16.94;43.63;94461.56;5025803;28;20316;-84
2024/04/06 08:19:43;;;;;;;14.38;4.25;;;;;;;17.11;42.96;94457.06;5025827;28;20105;-84
2024/04/06 08:22:09;;;;;;;23.73;3.80;;;;;;;17.33;42.02;94464.63;5025975;28;20079;-84
2024/04/06 08:24:34;;;;;;;14.90;4.13;;;;;;;17.51;41.89;94459.75;5025594;28;20045;-84
2024/04/06 08:27:00;;;;;;;20.05;3.97;;;;;;;17.64;41.51;94458.56;5024574;28;20042;-86
2024/04/06 08:29:28;;;;;;;9.35;3.45;;;;;;;17.89;40.83;94455.03;5024860;28;20017;-84
2024/04/06 08:31:54;;;;;;;16.67;3.95;;;;;;;18.06;39.97;94457.41;5026166;28;20029;-85
2024/04/06 08:34:19;;;;;;;21.75;4.13;;;;;;;18.17;38.81;94455.75;5025575;28;20015;-85
2024/04/06 08:36:45;;;;;;;10.27;3.67;;;;;;;18.30;38.49;94453.00;5025159;28;20378;-85
2024/04/06 08:39:10;;;;;;;14.23;3.70;;;;;;;18.49;38.26;94449.63;5025405;28;20102;-85
2024/04/06 08:41:36;;;;;;;16.70;3.50;;;;;;;18.74;38.04;94453.69;5025318;28;20017;-86
2024/04/06 08:44:03;;;;;;;10.40;3.38;;;;;;;18.99;37.59;94451.59;5025142;28;20033;-83
2024/04/06 08:46:29;;;;;;;20.50;3.92;;;;;;;19.19;36.62;94451.63;5025493;28;20041;-85
2024/04/06 08:48:54;;;;;;;14.85;3.33;;;;;;;19.33;35.55;94457.34;5024905;28;20064;-84
2024/04/06 08:51:23;;;;;;;16.48;3.90;;;;;;;19.38;35.37;94448.97;5025048;28;20021;-85
2024/04/06 08:53:48;;;;;;;14.25;3.40;;;;;;;19.40;35.97;94462.91;5025122;28;20026;-84
2024/04/06 08:56:15;;;;;;;14.65;3.35;;;;;;;19.31;35.78;94454.19;5024852;28;20036;-84
2024/04/06 08:58:43;;;;;;;9.80;3.30;;;;;;;19.33;35.81;94457.34;5024737;28;20049;-83
2024/04/06 09:01:11;;;;;;;20.02;3.92;;;;;;;19.42;35.96;94449.03;5025013;28;20256;-83
2024/04/06 09:03:36;;;;;;;11.80;3.58;;;;;;;19.44;35.50;94452.19;5024554;28;20033;-85
2024/04/06 09:06:02;;;;;;;14.57;3.60;;;;;;;19.52;35.67;94458.50;5024663;28;20097;-84
2024/04/06 09:08:28;;;;;;;8.63;2.90;;;;;;;19.47;35.11;94454.16;5023533;28;20157;-83
2024/04/06 09:10:57;;;;;;;16.02;2.72;;;;;;;19.53;34.96;94454.66;5024594;28;20316;-84
2024/04/06 09:13:23;;;;;;;16.20;3.00;;;;;;;19.69;34.26;94449.19;5024965;28;20041;-84
2024/04/06 09:15:48;;;;;;;8.88;2.53;;;;;;;19.80;33.85;94451.00;5023596;28;20024;-85
2024/04/06 09:18:18;;;;;;;14.73;3.45;;;;;;;19.86;33.61;94450.69;5027714;28;20034;-86
2024/04/06 09:20:51;;;;;;;8.25;3.13;;;;;;;20.03;33.62;94451.03;5027213;28;20100;-83
2024/04/06 09:23:17;;;;;;;10.73;3.00;;;;;;;20.18;32.83;94443.94;5026996;28;20030;-85
2024/04/06 09:25:42;;;;;;;7.60;2.38;;;;;;;20.31;32.37;94444.53;5026414;28;20186;-84
2024/04/06 09:28:10;;;;;;;10.00;2.47;;;;;;;20.40;31.66;94449.75;5027065;28;20213;-82
2024/04/06 09:30:43;;;;;;;5.85;2.00;;;;;;;20.54;31.83;94441.84;5031078;28;20021;-86
2024/04/06 09:33:15;;;;;;;11.77;2.72;;;;;;;20.64;31.27;94441.28;5028643;28;20045;-82
2024/04/06 09:35:41;;;;;;;12.77;2.20;;;;;;;20.83;31.12;94436.91;5027543;28;20038;-83
2024/04/06 09:38:13;;;;;;;7.18;1.77;;;;;;;20.94;30.52;94439.78;5027836;28;20024;-81
2024/04/06 09:40:47;;;;;;;7.30;1.67;;;;;;;20.99;29.93;94439.47;5024312;28;20022;-81
2024/04/06 09:43:13;;;;;;;2.38;1.10;;;;;;;21.03;29.54;94430.25;5023576;28;20032;-81
2024/04/06 09:45:40;;;;;;;3.78;1.50;;;;;;;21.11;29.49;94431.13;5022907;28;20041;-82
2024/04/06 09:48:07;;;;;;;7.50;1.40;;;;;;;21.14;29.52;94416.81;5021557;28;20025;-80
2024/04/06 09:50:36;;;;;;;7.47;1.45;;;;;;;21.17;28.28;94413.41;5022482;28;20022;-81
2024/04/06 09:53:02;;;;;;;10.02;1.33;;;;;;;21.26;28.82;94404.22;5023528;28;20259;-80
2024/04/06 09:55:30;;;;;;;4.65;1.55;;;;;;;21.38;28.90;94402.03;5056645;28;20093;-80
2024/04/06 09:57:56;;;;;;;2.50;0.93;;;;;;;21.46;27.16;94386.69;5024157;28;20033;-80
2024/04/06 10:00:22;;;;;;;3.75;1.38;;;;;;;21.54;28.14;94392.97;5023445;28;20257;-81
2024/04/06 10:02:50;;;;;;;6.80;1.40;;;;;;;21.47;26.84;94384.75;5022917;28;20109;-81
2024/04/06 10:05:16;;;;;;;3.25;1.02;;;;;;;21.61;27.40;94376.75;5023552;28;20025;-80
2024/04/06 10:07:47;;;;;;;2.58;1.23;;;;;;;21.83;27.79;94373.13;5023826;28;20232;-81
2024/04/06 10:10:12;;;;;;;6.57;1.17;;;;;;;22.05;26.74;94357.06;5023484;28;20026;-81
2024/04/06 10:12:48;;;;;;;9.30;1.20;;;;;;;22.24;27.19;94362.28;5022767;28;20056;-80
2024/04/06 10:15:13;;;;;;;4.82;1.60;;;;;;;22.39;28.16;94371.34;5022560;28;20072;-81
2024/04/06 10:17:43;;;;;;;12.18;1.75;;;;;;;22.45;27.76;94366.34;5022646;28;20057;-81
2024/04/06 10:20:10;;;;;;;7.70;1.55;;;;;;;22.54;27.63;94361.38;5024279;28;20283;-81
2024/04/06 10:23:05;;;;;;;3.17;1.15;;;;;;;22.51;25.39;94362.13;5024522;28;20026;-81
2024/04/06 10:25:37;;;;;;;2.20;0.93;;;;;;;22.54;25.94;94361.38;5018478;28;20037;-82
2024/04/06 10:28:07;;;;;;;5.65;1.27;;;;;;;22.58;26.58;94362.16;5023822;28;20319;-80
2024/04/06 10:30:37;;;;;;;4.50;1.20;;;;;;;22.50;26.73;94363.28;5023638;28;20080;-81
2024/04/06 10:33:06;;;;;;;1.38;0.60;;;;;;;22.41;26.11;94347.31;5023739;28;20031;-81
2024/04/06 10:35:32;;;;;;;3.58;0.82;;;;;;;22.42;26.21;94353.50;5023367;28;20336;-81
2024/04/06 10:37:58;;;;;;;2.92;0.90;;;;;;;22.23;25.44;94352.59;5021740;28;20101;-81
2024/04/06 10:40:27;;;;;;;2.55;0.73;;;;;;;22.29;25.05;94344.88;5023089;28;20030;-81
2024/04/06 10:42:52;;;;;;;3.03;1.23;;;;;;;22.40;25.38;94334.09;5022234;28;20141;-81
2024/04/06 10:45:18;;;;;;;5.68;1.67;;;;;;;22.48;26.04;94332.22;5022236;28;20030;-82
2024/04/06 10:47:43;;;;;;;4.38;1.00;;;;;;;22.59;25.85;94323.00;5023236;28;20026;-82
2024/04/06 10:50:10;;;;;;;3.35;1.30;;;;;;;22.53;25.20;94340.00;5022848;28;20026;-82
2024/04/06 10:52:37;;;;;;;2.85;0.93;;;;;;;22.57;25.71;94332.66;5022906;28;20085;-82
2024/04/06 10:55:21;;;;;;;3.60;1.20;;;;;;;22.59;25.60;94328.44;5022901;28;20049;-82
2024/04/06 10:57:47;;;;;;;3.55;0.80;;;;;;;22.53;25.41;94319.06;5022880;28;20154;-82
2024/04/06 11:00:17;;;;;;;4.90;1.20;;;;;;;22.55;25.92;94324.91;5021602;28;20324;-82
2024/04/06 11:02:44;;;;;;;11.40;0.95;;;;;;;22.42;25.26;94318.22;5023002;28;20093;-82
2024/04/06 11:05:10;;;;;;;3.25;0.73;;;;;;;22.43;25.36;94317.06;5022550;28;20025;-82
2024/04/06 11:07:40;;;;;;;1.85;0.90;;;;;;;22.48;25.62;94313.22;5022644;28;20030;-82
2024/04/06 11:10:10;;;;;;;8.90;1.30;;;;;;;22.54;26.29;94308.97;5022746;28;20029;-82
2024/04/06 11:12:37;;;;;;;2.38;0.80;;;;;;;22.62;26.41;94305.16;5022914;28;20076;-82
2024/04/06 11:15:07;;;;;;;6.30;1.30;;;;;;;22.67;25.94;94306.72;5022868;28;20025;-82
2024/04/06 11:17:34;;;;;;;2.60;0.93;;;;;;;22.65;25.99;94298.94;5022386;28;20025;-82
2024/04/06 11:20:02;;;;;;;4.03;1.02;;;;;;;22.71;25.61;94288.50;5022602;28;20022;-82
2024/04/06 11:22:28;;;;;;;2.88;0.80;;;;;;;22.86;25.22;94301.03;5023064;28;20096;-82
2024/04/06 11:24:55;;;;;;;2.38;0.80;;;;;;;22.90;23.26;94284.72;5022724;28;20220;-82
2024/04/06 11:27:21;;;;;;;1.83;0.80;;;;;;;22.94;22.89;94275.44;5021423;28;20040;-82